Time;durP1;ratioP1;P1;durP2;ratioP2;P2;SDS_P1;SDS_P2;PMS_P1;PMS_P2;Temp;Humidity;BMP_temperature;BMP_pressure;BME280_temperature;BME280_humidity;BME280_pressure;Samples;Min_cycle;Max_cycle;Signal;HPM_P1;HPM_P2
2021/09/21 00:01:58;;;;;;;12.38;7.80;;;14.40;99.90;;;;;;5078405;28;20060;-59
2021/09/21 00:04:27;;;;;;;12.65;8.05;;;14.40;99.90;;;;;;5071831;28;20492;-60
2021/09/21 00:06:54;;;;;;;11.80;7.93;;;14.40;99.90;;;;;;5077955;28;20032;-58
2021/09/21 00:09:19;;;;;;;9.57;6.88;;;14.40;99.90;;;;;;5084606;28;20103;-58
2021/09/21 00:11:45;;;;;;;9.00;6.50;;;14.40;99.90;;;;;;5087686;28;20111;-59
2021/09/21 00:14:10;;;;;;;11.80;7.20;;;14.30;99.90;;;;;;5080845;28;20033;-57
2021/09/21 00:16:36;;;;;;;12.93;8.55;;;14.30;99.90;;;;;;5082398;28;20033;-59
2021/09/21 00:19:02;;;;;;;17.20;7.50;;;14.30;99.90;;;;;;5071318;28;20037;-59
2021/09/21 00:21:27;;;;;;;11.68;7.40;;;14.30;99.90;;;;;;5078948;28;20594;-56
2021/09/21 00:23:53;;;;;;;11.02;7.68;;;14.30;99.90;;;;;;5087187;28;20032;-56
2021/09/21 00:26:18;;;;;;;11.32;7.43;;;14.30;99.90;;;;;;5081944;28;20065;-61
2021/09/21 00:28:44;;;;;;;10.63;7.20;;;14.20;99.90;;;;;;5082999;28;20028;-58
2021/09/21 00:31:10;;;;;;;15.40;7.40;;;14.30;99.90;;;;;;5089392;28;20023;-57
2021/09/21 00:33:51;;;;;;;9.32;7.32;;;14.20;99.90;;;;;;5082598;28;20407;-57
2021/09/21 00:36:17;;;;;;;12.63;6.97;;;14.20;99.90;;;;;;5080278;28;20017;-57
2021/09/21 00:38:43;;;;;;;11.32;7.28;;;14.20;99.90;;;;;;5086886;28;20112;-60
2021/09/21 00:41:10;;;;;;;10.75;6.95;;;14.20;99.90;;;;;;5056242;28;20484;-58
2021/09/21 00:43:35;;;;;;;9.30;6.78;;;14.20;99.90;;;;;;5079165;28;20392;-56
2021/09/21 00:46:01;;;;;;;12.15;7.32;;;14.20;99.90;;;;;;5078482;28;20035;-58
2021/09/21 00:48:26;;;;;;;15.05;6.38;;;14.20;99.90;;;;;;5071171;28;20048;-58
2021/09/21 00:50:52;;;;;;;9.45;6.75;;;14.20;99.90;;;;;;5076550;28;20066;-57
2021/09/21 00:53:18;;;;;;;10.68;6.82;;;14.20;99.90;;;;;;5054077;28;20085;-55
2021/09/21 00:55:44;;;;;;;9.30;5.85;;;14.20;99.90;;;;;;5080331;28;20034;-56
2021/09/21 00:58:10;;;;;;;10.30;6.80;;;14.20;99.90;;;;;;5074148;28;20365;-60
2021/09/21 01:00:35;;;;;;;11.85;7.57;;;14.20;99.90;;;;;;5080657;28;20032;-58
2021/09/21 01:03:02;;;;;;;9.85;6.80;;;14.30;99.90;;;;;;5086516;28;20069;-54
2021/09/21 01:07:56;;;;;;;8.40;6.22;;;14.30;99.90;;;;;;5061522;28;20518;-62
2021/09/21 01:10:25;;;;;;;8.50;6.53;;;14.30;99.90;;;;;;5062641;28;20029;-62
2021/09/21 01:12:51;;;;;;;11.23;6.35;;;14.30;99.90;;;;;;5060874;28;20051;-62
2021/09/21 01:15:17;;;;;;;8.25;6.20;;;14.30;99.90;;;;;;5041732;28;20021;-62
2021/09/21 01:17:43;;;;;;;12.15;6.10;;;14.30;99.90;;;;;;5064945;28;20021;-62
2021/09/21 01:20:11;;;;;;;10.57;6.40;;;14.20;99.90;;;;;;5065498;28;20025;-61
2021/09/21 01:22:37;;;;;;;13.65;6.82;;;14.20;99.90;;;;;;5060106;28;20037;-61
2021/09/21 01:25:05;;;;;;;10.90;7.25;;;14.10;99.90;;;;;;5057766;28;20122;-62
2021/09/21 01:27:31;;;;;;;9.43;6.43;;;14.10;99.90;;;;;;5062727;28;20033;-61
2021/09/21 01:29:56;;;;;;;9.98;5.80;;;14.00;99.90;;;;;;5072320;28;20395;-62
2021/09/21 01:32:22;;;;;;;11.02;7.05;;;14.10;99.90;;;;;;5057603;28;20079;-61
2021/09/21 01:34:48;;;;;;;8.30;6.25;;;14.00;99.90;;;;;;5054903;28;20029;-61
2021/09/21 01:37:14;;;;;;;12.90;6.45;;;14.00;99.90;;;;;;5060523;28;20037;-60
2021/09/21 01:39:41;;;;;;;10.77;6.20;;;14.00;99.90;;;;;;5053476;28;20029;-60
2021/09/21 01:42:07;;;;;;;12.45;5.85;;;14.00;99.90;;;;;;5065478;28;20036;-60
2021/09/21 01:44:33;;;;;;;9.70;6.45;;;14.10;99.90;;;;;;5058680;28;20029;-61
2021/09/21 01:47:02;;;;;;;7.43;6.30;;;14.10;99.90;;;;;;5061177;28;20108;-60
2021/09/21 01:49:33;;;;;;;12.52;6.38;;;14.10;99.90;;;;;;5061067;28;20025;-61
2021/09/21 01:52:11;;;;;;;8.70;5.95;;;14.00;99.90;;;;;;5056525;28;20021;-61
2021/09/21 01:55:03;;;;;;;9.45;6.60;;;14.00;99.90;;;;;;5069162;28;20116;-59
2021/09/21 02:00:14;;;;;;;12.18;7.40;;;14.00;99.90;;;;;;5057496;28;20043;-59
2021/09/21 02:02:39;;;;;;;9.02;6.45;;;14.00;99.90;;;;;;5065796;28;20426;-61
2021/09/21 02:05:05;;;;;;;13.35;6.82;;;14.00;99.90;;;;;;5057709;28;20051;-62
2021/09/21 02:07:31;;;;;;;10.68;6.78;;;13.90;99.90;;;;;;5064832;28;20113;-62
2021/09/21 02:09:56;;;;;;;9.45;6.97;;;13.90;99.90;;;;;;5065545;28;20079;-61
2021/09/21 02:12:22;;;;;;;9.60;6.80;;;13.90;99.90;;;;;;5063999;28;20086;-61
2021/09/21 02:14:47;;;;;;;8.82;7.03;;;13.90;99.90;;;;;;5036144;28;20538;-61
2021/09/21 02:17:13;;;;;;;9.60;6.00;;;13.90;99.90;;;;;;5053447;28;20021;-61
2021/09/21 02:19:40;;;;;;;9.75;6.15;;;14.00;99.90;;;;;;5052296;28;20108;-61
2021/09/21 02:22:06;;;;;;;8.73;6.43;;;13.90;99.90;;;;;;5062058;28;20488;-61
2021/09/21 02:24:32;;;;;;;10.80;6.43;;;14.00;99.90;;;;;;5055011;28;20033;-61
2021/09/21 02:26:58;;;;;;;13.38;6.55;;;13.90;99.90;;;;;;5055644;28;20119;-61
2021/09/21 02:29:23;;;;;;;9.10;6.60;;;13.90;99.90;;;;;;5052278;28;20028;-62
2021/09/21 02:31:49;;;;;;;11.68;7.07;;;13.90;99.90;;;;;;5066734;28;20012;-62
2021/09/21 02:34:14;;;;;;;9.30;6.00;;;13.90;99.90;;;;;;5066308;28;20112;-61
2021/09/21 02:36:41;;;;;;;8.02;6.97;;;13.80;99.90;;;;;;5061305;28;20123;-62
2021/09/21 02:39:08;;;;;;;13.30;6.88;;;13.80;99.90;;;;;;5057712;28;20033;-62
2021/09/21 02:41:34;;;;;;;11.10;6.45;;;13.80;99.90;;;;;;5063543;28;20035;-62
2021/09/21 02:43:59;;;;;;;13.00;7.00;;;13.80;99.90;;;;;;5055195;28;20389;-61
2021/09/21 02:46:25;;;;;;;8.48;6.22;;;13.80;99.90;;;;;;5052403;28;20025;-62
2021/09/21 02:48:50;;;;;;;14.32;6.80;;;13.90;99.90;;;;;;5065730;28;20443;-61
2021/09/21 02:51:16;;;;;;;10.75;6.63;;;13.80;99.90;;;;;;5061538;28;20477;-61
2021/09/21 02:53:42;;;;;;;9.52;6.35;;;13.80;99.90;;;;;;5056621;28;20021;-61
2021/09/21 02:56:07;;;;;;;8.60;6.55;;;13.70;99.90;;;;;;5063139;28;20032;-61
2021/09/21 02:58:33;;;;;;;10.48;6.70;;;13.80;99.90;;;;;;5065948;28;20157;-62
2021/09/21 03:00:59;;;;;;;11.40;6.95;;;13.80;99.90;;;;;;5065093;28;20028;-63
2021/09/21 03:03:29;;;;;;;10.20;6.70;;;13.80;99.90;;;;;;5037905;28;20040;-62
2021/09/21 03:06:08;;;;;;;11.48;6.93;;;13.80;99.90;;;;;;5061720;28;20032;-62
2021/09/21 03:08:36;;;;;;;12.57;6.72;;;13.80;99.90;;;;;;5061979;28;20086;-63
2021/09/21 03:11:12;;;;;;;12.23;6.68;;;13.80;99.90;;;;;;5061206;28;20492;-62
2021/09/21 03:18:47;;;;;;;;;;;13.60;99.90;;;;;;5064461;28;20067;-62
2021/09/21 03:21:13;;;;;;;8.23;6.05;;;13.60;99.90;;;;;;5058842;28;20387;-62
2021/09/21 03:23:39;;;;;;;9.52;6.90;;;13.60;99.90;;;;;;5056427;28;20029;-62
2021/09/21 03:26:04;;;;;;;12.80;6.55;;;13.60;99.90;;;;;;5055595;28;20408;-61
2021/09/21 03:28:30;;;;;;;8.98;7.10;;;13.60;99.90;;;;;;5051262;28;20485;-62
2021/09/21 03:30:55;;;;;;;8.05;6.25;;;13.60;99.90;;;;;;5061943;28;20032;-62
2021/09/21 03:33:21;;;;;;;9.45;6.05;;;13.60;99.90;;;;;;5065691;28;20027;-61
2021/09/21 03:35:46;;;;;;;10.60;6.43;;;13.60;99.90;;;;;;5061058;28;20032;-62
2021/09/21 03:38:12;;;;;;;9.18;6.60;;;13.60;99.90;;;;;;5058704;28;20491;-60
2021/09/21 03:40:39;;;;;;;11.23;6.22;;;13.70;99.90;;;;;;5066210;28;20027;-62
2021/09/21 03:43:04;;;;;;;10.30;5.95;;;13.70;99.90;;;;;;5057416;28;20033;-62
2021/09/21 03:45:30;;;;;;;11.95;7.13;;;13.80;99.90;;;;;;5060953;28;20032;-61
2021/09/21 03:47:56;;;;;;;10.38;6.95;;;13.70;99.90;;;;;;5056787;28;20029;-62
2021/09/21 03:50:22;;;;;;;11.25;6.90;;;13.60;99.90;;;;;;5053389;28;20032;-62
2021/09/21 03:52:48;;;;;;;12.60;5.90;;;13.60;99.90;;;;;;5061889;28;20052;-61
2021/09/21 03:55:15;;;;;;;10.35;6.72;;;13.50;99.90;;;;;;5064780;28;20097;-61
2021/09/21 03:57:41;;;;;;;10.75;7.18;;;13.60;99.90;;;;;;5056724;28;20488;-62
2021/09/21 04:00:08;;;;;;;8.18;6.72;;;13.50;99.90;;;;;;5064173;28;20032;-62
2021/09/21 04:02:33;;;;;;;10.43;6.25;;;13.40;99.90;;;;;;5057783;28;20037;-61
2021/09/21 04:04:59;;;;;;;8.60;6.70;;;13.40;99.90;;;;;;5062602;28;20063;-62
2021/09/21 04:07:24;;;;;;;12.98;6.80;;;13.40;99.90;;;;;;5060922;28;20025;-61
2021/09/21 04:09:50;;;;;;;11.30;6.70;;;13.40;99.90;;;;;;5065555;28;20040;-62
2021/09/21 04:12:15;;;;;;;17.95;6.20;;;13.40;99.90;;;;;;5057702;28;20048;-61
2021/09/21 04:14:41;;;;;;;8.02;6.28;;;13.40;99.90;;;;;;5058541;28;20036;-62
2021/09/21 04:17:06;;;;;;;16.15;5.88;;;13.40;99.90;;;;;;5059761;28;20036;-62
2021/09/21 04:19:32;;;;;;;9.27;6.00;;;13.40;99.90;;;;;;5060843;28;20112;-63
2021/09/21 04:21:58;;;;;;;9.32;6.45;;;13.50;99.90;;;;;;5056485;28;20025;-62
2021/09/21 04:24:23;;;;;;;9.68;6.40;;;13.40;99.90;;;;;;5037694;28;20044;-62
2021/09/21 04:26:49;;;;;;;7.53;6.15;;;13.40;99.90;;;;;;5065785;28;20037;-62
2021/09/21 04:29:14;;;;;;;13.10;6.63;;;13.30;99.90;;;;;;5062711;28;20097;-62
2021/09/21 04:31:45;;;;;;;10.38;6.32;;;13.30;99.90;;;;;;5047453;28;20036;-62
2021/09/21 04:34:14;;;;;;;8.10;5.55;;;13.40;99.90;;;;;;5059353;28;20027;-62
2021/09/21 04:36:41;;;;;;;11.35;6.30;;;13.50;99.90;;;;;;5058750;28;20021;-62
2021/09/21 04:39:07;;;;;;;11.02;5.68;;;13.50;99.90;;;;;;5058150;28;20121;-61
2021/09/21 04:41:32;;;;;;;7.25;5.60;;;13.50;99.90;;;;;;5061287;28;20107;-61
2021/09/21 04:43:59;;;;;;;9.20;5.97;;;13.50;99.90;;;;;;5060467;28;20063;-60
2021/09/21 04:46:25;;;;;;;8.63;5.68;;;13.50;99.90;;;;;;5055931;28;20025;-62
2021/09/21 04:48:50;;;;;;;9.25;5.68;;;13.60;99.90;;;;;;5049936;28;20037;-62
2021/09/21 04:51:16;;;;;;;9.55;5.53;;;13.60;99.90;;;;;;5061791;28;20025;-61
2021/09/21 04:53:41;;;;;;;7.90;5.25;;;13.60;99.90;;;;;;5051311;28;20396;-62
2021/09/21 04:56:07;;;;;;;7.85;4.75;;;13.50;99.90;;;;;;5067698;28;20484;-62
2021/09/21 04:58:32;;;;;;;6.53;5.38;;;13.50;99.90;;;;;;5055637;28;20032;-62
2021/09/21 05:00:58;;;;;;;8.30;5.07;;;13.50;99.90;;;;;;5058381;28;20036;-61
2021/09/21 05:03:23;;;;;;;14.18;5.65;;;13.50;99.90;;;;;;5063873;28;20035;-61
2021/09/21 05:05:49;;;;;;;13.48;6.40;;;13.40;99.90;;;;;;5054353;28;20033;-62
2021/09/21 05:08:15;;;;;;;9.85;4.95;;;13.40;99.90;;;;;;5052839;28;20036;-61
2021/09/21 05:10:40;;;;;;;12.30;5.85;;;13.40;99.90;;;;;;5061057;28;20100;-62
2021/09/21 05:13:06;;;;;;;9.73;5.25;;;13.30;99.90;;;;;;5056730;28;20463;-62
2021/09/21 05:15:31;;;;;;;10.10;5.78;;;13.30;99.90;;;;;;5063382;28;20028;-62
2021/09/21 05:17:57;;;;;;;12.32;5.78;;;13.30;99.90;;;;;;5053758;28;20040;-61
2021/09/21 05:20:22;;;;;;;11.43;4.80;;;13.30;99.90;;;;;;5059429;28;20024;-60
2021/09/21 05:22:52;;;;;;;9.70;5.35;;;13.30;99.90;;;;;;5055246;28;20021;-62
2021/09/21 05:25:18;;;;;;;9.98;5.32;;;13.30;99.90;;;;;;5053924;28;20017;-62
2021/09/21 05:27:44;;;;;;;8.43;5.35;;;13.30;99.90;;;;;;5060230;28;20399;-62
2021/09/21 05:30:10;;;;;;;8.75;5.85;;;13.20;99.90;;;;;;5053610;28;20033;-60
2021/09/21 05:32:36;;;;;;;8.65;5.00;;;13.20;99.90;;;;;;5041668;28;20056;-59
2021/09/21 05:35:01;;;;;;;7.57;5.45;;;13.20;99.90;;;;;;5062027;28;20064;-59
2021/09/21 05:37:30;;;;;;;12.40;5.78;;;13.20;99.90;;;;;;5055406;28;20507;-59
2021/09/21 05:39:55;;;;;;;10.75;4.90;;;13.10;99.90;;;;;;5059289;28;20034;-56
2021/09/21 05:42:21;;;;;;;8.75;4.97;;;13.10;99.90;;;;;;5050606;28;20037;-58
2021/09/21 05:44:46;;;;;;;17.15;5.53;;;12.90;99.90;;;;;;5059059;28;20103;-58
2021/09/21 05:47:12;;;;;;;8.73;5.47;;;12.90;99.90;;;;;;5065571;28;20068;-59
2021/09/21 05:49:39;;;;;;;12.15;6.85;;;12.80;99.90;;;;;;5058104;28;20029;-59
2021/09/21 05:52:05;;;;;;;10.85;5.53;;;12.70;99.90;;;;;;5066563;28;20056;-57
2021/09/21 05:54:31;;;;;;;11.50;5.93;;;12.70;99.90;;;;;;5063602;28;20028;-57
2021/09/21 05:56:57;;;;;;;14.95;7.03;;;12.60;99.90;;;;;;5057545;28;20024;-60
2021/09/21 05:59:22;;;;;;;13.25;7.18;;;12.40;99.90;;;;;;5059172;28;20028;-61
2021/09/21 06:01:48;;;;;;;13.90;5.68;;;12.40;99.90;;;;;;5066745;28;20052;-60
2021/09/21 06:04:14;;;;;;;12.32;6.45;;;12.40;99.90;;;;;;5067143;28;20033;-61
2021/09/21 06:06:39;;;;;;;8.77;5.63;;;12.30;99.90;;;;;;5068406;28;20467;-59
2021/09/21 06:09:05;;;;;;;11.40;6.13;;;12.20;99.90;;;;;;5055435;28;20041;-61
2021/09/21 06:11:33;;;;;;;10.85;7.10;;;12.20;99.90;;;;;;5057963;28;20021;-61
2021/09/21 06:14:04;;;;;;;12.43;6.03;;;12.10;99.90;;;;;;5052317;28;20048;-61
2021/09/21 06:16:30;;;;;;;14.55;7.47;;;12.10;99.90;;;;;;5052350;28;20021;-59
2021/09/21 06:18:56;;;;;;;11.38;6.90;;;12.00;99.90;;;;;;5057717;28;20037;-61
2021/09/21 06:21:22;;;;;;;14.02;6.15;;;12.00;99.90;;;;;;5059274;28;20039;-60
2021/09/21 06:23:49;;;;;;;11.27;6.00;;;12.10;99.90;;;;;;5067509;28;20028;-60
2021/09/21 06:26:14;;;;;;;16.02;6.82;;;12.10;99.90;;;;;;5058495;28;20346;-59
2021/09/21 06:28:40;;;;;;;15.38;7.15;;;12.20;99.90;;;;;;5058051;28;20036;-60
2021/09/21 06:31:05;;;;;;;17.67;8.20;;;12.20;99.90;;;;;;5063904;28;20032;-61
2021/09/21 06:33:31;;;;;;;13.68;7.35;;;12.20;99.90;;;;;;5058333;28;20025;-61
2021/09/21 06:35:57;;;;;;;18.35;7.50;;;12.20;99.90;;;;;;5066432;28;20033;-61
2021/09/21 06:38:23;;;;;;;16.08;6.60;;;12.30;99.90;;;;;;5056355;28;20312;-60
2021/09/21 06:40:48;;;;;;;17.92;7.28;;;12.30;99.90;;;;;;5071284;28;20408;-60
2021/09/21 06:43:14;;;;;;;10.98;6.63;;;12.30;99.90;;;;;;5058831;28;20393;-61
2021/09/21 06:45:39;;;;;;;21.15;7.53;;;12.30;99.90;;;;;;5052391;28;20392;-61
2021/09/21 06:48:05;;;;;;;12.30;6.57;;;12.40;99.90;;;;;;5055007;28;20039;-60
2021/09/21 06:50:30;;;;;;;14.07;7.05;;;12.40;99.90;;;;;;5066832;28;20040;-60
2021/09/21 06:52:56;;;;;;;14.50;7.25;;;12.50;99.90;;;;;;5070353;28;20115;-61
2021/09/21 06:55:22;;;;;;;13.85;7.03;;;12.50;99.90;;;;;;5056445;28;20052;-61
2021/09/21 06:57:52;;;;;;;16.05;6.25;;;12.60;99.90;;;;;;5051228;28;20056;-61
2021/09/21 07:00:18;;;;;;;18.02;5.93;;;12.70;99.90;;;;;;5051671;28;20492;-61
2021/09/21 07:02:47;;;;;;;11.20;5.50;;;12.70;99.90;;;;;;5063687;28;20854;-61
2021/09/21 07:05:13;;;;;;;8.77;4.90;;;12.70;99.90;;;;;;5051596;28;20086;-61
2021/09/21 07:07:47;;;;;;;11.48;5.40;;;12.80;99.90;;;;;;5080479;23;20048;-60
2021/09/21 07:10:14;;;;;;;7.15;5.00;;;12.90;99.90;;;;;;5072463;28;20098;-58
2021/09/21 07:12:40;;;;;;;10.10;5.00;;;12.90;99.90;;;;;;5058392;28;20116;-57
2021/09/21 07:15:07;;;;;;;10.75;5.00;;;12.90;99.90;;;;;;5075825;28;20025;-54
2021/09/21 07:17:32;;;;;;;9.10;4.85;;;13.00;99.90;;;;;;5067642;28;20078;-59
2021/09/21 07:19:58;;;;;;;6.80;4.78;;;13.00;99.90;;;;;;5072790;28;20029;-58
2021/09/21 07:22:23;;;;;;;14.20;5.13;;;13.10;99.90;;;;;;5070420;28;20031;-59
2021/09/21 07:24:50;;;;;;;8.18;4.75;;;13.10;99.90;;;;;;5071595;28;20027;-61
2021/09/21 07:27:16;;;;;;;7.90;4.68;;;13.10;99.90;;;;;;5070780;28;20039;-63
2021/09/21 07:29:42;;;;;;;7.20;4.72;;;13.20;99.90;;;;;;5063644;28;20029;-59
2021/09/21 07:32:07;;;;;;;8.60;5.47;;;13.20;99.90;;;;;;5068765;28;20052;-60
2021/09/21 07:34:33;;;;;;;10.80;5.22;;;13.30;99.90;;;;;;5071254;28;20417;-61
2021/09/21 07:36:59;;;;;;;8.13;5.40;;;13.30;99.90;;;;;;5067131;28;20032;-61
2021/09/21 07:39:25;;;;;;;10.88;5.07;;;13.30;99.90;;;;;;5068229;28;20032;-60
2021/09/21 07:41:51;;;;;;;6.68;4.28;;;13.40;99.90;;;;;;5063965;28;20032;-62
2021/09/21 07:44:16;;;;;;;8.10;3.63;;;13.50;99.90;;;;;;5066480;28;20022;-64
2021/09/21 07:46:42;;;;;;;13.65;4.38;;;13.60;99.90;;;;;;5065729;28;20447;-58
2021/09/21 07:49:08;;;;;;;9.45;4.03;;;13.60;99.90;;;;;;5063515;28;20067;-62
2021/09/21 07:51:33;;;;;;;8.02;4.30;;;13.70;99.90;;;;;;5066111;28;20391;-60
2021/09/21 07:53:59;;;;;;;9.02;4.65;;;13.80;99.90;;;;;;5066394;28;20028;-58
2021/09/21 07:56:24;;;;;;;9.23;4.22;;;13.80;99.90;;;;;;5072486;28;20384;-60
2021/09/21 07:58:50;;;;;;;9.30;4.50;;;13.80;99.90;;;;;;5068083;28;20032;-62
2021/09/21 08:01:16;;;;;;;8.65;4.35;;;13.80;99.90;;;;;;5047105;28;20032;-63
2021/09/21 08:03:42;;;;;;;7.28;4.07;;;13.80;99.90;;;;;;5065598;28;20063;-61
2021/09/21 08:06:09;;;;;;;14.68;4.72;;;13.90;99.90;;;;;;5064155;28;20032;-62
2021/09/21 08:08:35;;;;;;;21.45;4.90;;;14.00;99.90;;;;;;5065447;28;20036;-63
2021/09/21 08:11:02;;;;;;;9.45;5.00;;;14.10;99.90;;;;;;5064838;28;20025;-61
2021/09/21 08:13:30;;;;;;;6.00;4.20;;;14.10;99.90;;;;;;5052202;28;20028;-62
2021/09/21 08:15:56;;;;;;;11.00;4.35;;;14.10;99.90;;;;;;5057244;28;20035;-60
2021/09/21 08:18:22;;;;;;;13.10;3.83;;;14.20;99.90;;;;;;5062341;28;20021;-61
2021/09/21 08:20:47;;;;;;;8.13;4.07;;;14.30;99.90;;;;;;5060156;28;20029;-61
2021/09/21 08:23:13;;;;;;;16.13;4.28;;;14.40;99.90;;;;;;5053711;28;20112;-61
2021/09/21 08:25:39;;;;;;;9.48;4.43;;;14.40;99.90;;;;;;5059605;28;20032;-63
2021/09/21 08:28:05;;;;;;;9.73;4.03;;;14.50;99.90;;;;;;5068409;28;21544;-61
2021/09/21 08:30:31;;;;;;;9.60;4.40;;;14.50;99.90;;;;;;5055943;28;20111;-62
2021/09/21 08:32:57;;;;;;;8.57;4.13;;;14.60;99.90;;;;;;5056916;28;20033;-60
2021/09/21 08:35:23;;;;;;;7.45;3.67;;;14.60;99.90;;;;;;5031956;28;20433;-61
2021/09/21 08:37:49;;;;;;;7.50;4.13;;;14.70;99.90;;;;;;5049318;28;20035;-59
2021/09/21 08:40:14;;;;;;;7.75;3.70;;;14.70;99.90;;;;;;5055656;28;20626;-60
2021/09/21 08:42:40;;;;;;;10.80;3.65;;;14.80;99.90;;;;;;5054373;28;20458;-61
2021/09/21 08:45:07;;;;;;;8.55;4.00;;;14.90;99.90;;;;;;5059657;28;20090;-63
2021/09/21 08:47:33;;;;;;;13.60;3.88;;;14.90;99.90;;;;;;5052376;28;20029;-62
2021/09/21 08:49:59;;;;;;;16.88;3.88;;;15.00;99.90;;;;;;5054367;28;20115;-62
2021/09/21 08:52:24;;;;;;;9.02;3.75;;;15.00;99.90;;;;;;5043229;28;20108;-61
2021/09/21 08:54:50;;;;;;;9.68;3.38;;;15.10;99.90;;;;;;5056571;28;20017;-63
2021/09/21 08:57:16;;;;;;;7.10;3.55;;;15.20;99.90;;;;;;5057056;28;20040;-58
2021/09/21 08:59:44;;;;;;;7.63;3.58;;;15.30;99.90;;;;;;5059699;28;20048;-60
2021/09/21 09:02:11;;;;;;;7.05;4.32;;;15.40;99.90;;;;;;5061049;28;20499;-60
2021/09/21 09:04:39;;;;;;;5.55;2.97;;;15.50;99.90;;;;;;5065502;28;20115;-62
2021/09/21 09:07:05;;;;;;;4.38;3.28;;;15.60;99.90;;;;;;5066889;28;20072;-63
2021/09/21 09:09:35;;;;;;;6.13;3.33;;;15.60;99.90;;;;;;5063198;28;20063;-61
2021/09/21 09:12:03;;;;;;;9.32;3.53;;;15.70;99.90;;;;;;5069889;28;20028;-61
2021/09/21 09:14:34;;;;;;;6.97;3.75;;;15.80;99.90;;;;;;5058534;28;20025;-60
2021/09/21 09:17:07;;;;;;;11.13;3.58;;;15.90;99.90;;;;;;5065331;28;20427;-62
2021/09/21 09:19:52;;;;;;;9.57;3.40;;;16.00;99.90;;;;;;5066204;28;20028;-61
2021/09/21 09:22:23;;;;;;;6.18;3.13;;;16.10;99.90;;;;;;5071489;28;20048;-62
2021/09/21 09:24:55;;;;;;;8.48;3.53;;;16.30;99.90;;;;;;5068180;28;20037;-60
2021/09/21 09:27:49;;;;;;;7.25;3.15;;;16.30;99.90;;;;;;5068777;28;20078;-60
2021/09/21 09:30:21;;;;;;;7.60;3.05;;;16.30;99.90;;;;;;5069080;28;20036;-62
2021/09/21 09:32:53;;;;;;;3.40;2.70;;;16.20;99.90;;;;;;5068131;28;20208;-60
2021/09/21 09:35:30;;;;;;;9.48;3.38;;;16.30;99.90;;;;;;5066491;28;20021;-59
2021/09/21 09:37:58;;;;;;;4.50;2.60;;;16.40;99.90;;;;;;5068492;28;20021;-61
2021/09/21 09:40:25;;;;;;;9.23;3.53;;;16.50;99.90;;;;;;5073968;28;20099;-60
2021/09/21 09:42:50;;;;;;;8.90;3.08;;;16.60;99.90;;;;;;5067346;28;20428;-61
2021/09/21 09:45:31;;;;;;;8.68;3.13;;;16.70;99.90;;;;;;5067817;28;20021;-63
2021/09/21 09:47:57;;;;;;;5.28;2.67;;;16.80;99.90;;;;;;5067024;28;20039;-61
2021/09/21 09:50:32;;;;;;;5.68;2.42;;;16.90;99.90;;;;;;5068141;28;20123;-62
2021/09/21 09:53:18;;;;;;;3.55;2.40;;;16.90;99.90;;;;;;5069492;28;20016;-58
2021/09/21 09:55:49;;;;;;;5.50;2.70;;;17.00;99.90;;;;;;5063225;28;20918;-60
2021/09/21 09:58:17;;;;;;;7.13;2.20;;;17.00;99.90;;;;;;5054302;28;20081;-62
2021/09/21 10:00:43;;;;;;;8.27;2.33;;;17.20;99.90;;;;;;5052156;28;20032;-60
2021/09/21 10:03:09;;;;;;;5.03;2.40;;;17.20;99.90;;;;;;5052813;28;20036;-59
2021/09/21 10:05:37;;;;;;;6.28;2.08;;;17.20;99.90;;;;;;5055575;28;20035;-60
2021/09/21 10:08:04;;;;;;;5.05;2.97;;;17.30;99.90;;;;;;5066535;28;20042;-62
2021/09/21 10:10:31;;;;;;;5.03;2.97;;;17.40;99.90;;;;;;5052359;28;20427;-62
2021/09/21 10:13:02;;;;;;;5.30;2.65;;;17.30;99.90;;;;;;5060587;28;20084;-62
2021/09/21 10:15:28;;;;;;;4.97;3.33;;;17.50;99.90;;;;;;5062009;28;20025;-61
2021/09/21 10:17:55;;;;;;;4.72;3.03;;;17.60;99.90;;;;;;5063289;28;20031;-59
2021/09/21 10:20:28;;;;;;;6.72;2.72;;;17.70;99.90;;;;;;5067748;28;20103;-62
2021/09/21 10:22:55;;;;;;;3.08;2.28;;;17.70;99.90;;;;;;5056653;28;20044;-64
2021/09/21 10:25:32;;;;;;;6.05;2.50;;;17.80;99.90;;;;;;5063039;28;20020;-64
2021/09/21 10:27:59;;;;;;;4.25;2.47;;;17.80;99.90;;;;;;5060439;28;20208;-63
2021/09/21 10:30:29;;;;;;;5.38;3.15;;;17.90;99.90;;;;;;5061969;28;20480;-62
2021/09/21 10:32:56;;;;;;;8.23;2.70;;;17.90;99.90;;;;;;5056357;28;20029;-64
2021/09/21 10:35:27;;;;;;;8.30;3.13;;;17.80;99.90;;;;;;5062930;28;20066;-63
2021/09/21 10:38:12;;;;;;;5.43;3.38;;;18.00;99.90;;;;;;5051751;28;20033;-63
2021/09/21 10:40:41;;;;;;;7.05;2.80;;;18.10;99.90;;;;;;5053961;28;20024;-59
2021/09/21 10:43:26;;;;;;;5.80;3.00;;;18.20;99.90;;;;;;5059318;28;20041;-60
2021/09/21 10:46:11;;;;;;;8.27;3.08;;;18.30;99.90;;;;;;5061451;28;20025;-57
2021/09/21 10:48:40;;;;;;;4.15;2.92;;;18.20;99.90;;;;;;5051502;28;20044;-62
2021/09/21 10:51:07;;;;;;;4.55;2.85;;;18.50;99.90;;;;;;5061978;28;20021;-64
2021/09/21 10:53:33;;;;;;;7.65;2.80;;;18.50;99.90;;;;;;5051734;28;20025;-62
2021/09/21 10:56:11;;;;;;;6.55;3.08;;;18.60;99.90;;;;;;5077998;28;20024;-62
2021/09/21 10:58:37;;;;;;;5.00;3.25;;;18.90;99.90;;;;;;5061323;28;20056;-62
2021/09/21 11:01:04;;;;;;;11.43;3.33;;;18.90;99.90;;;;;;5057488;28;20025;-63
2021/09/21 11:03:31;;;;;;;7.65;2.83;;;18.70;99.90;;;;;;5039072;28;20025;-62
2021/09/21 11:05:58;;;;;;;8.32;3.00;;;18.90;99.90;;;;;;5051376;28;20430;-63
2021/09/21 11:08:34;;;;;;;2.88;2.08;;;18.90;99.90;;;;;;5050917;28;20044;-61
2021/09/21 11:11:02;;;;;;;10.13;2.90;;;19.10;99.90;;;;;;5050691;28;20057;-59
2021/09/21 11:13:36;;;;;;;3.33;2.35;;;19.20;99.90;;;;;;5059156;28;20022;-58
2021/09/21 11:16:07;;;;;;;4.40;2.57;;;19.00;99.90;;;;;;5058918;28;20062;-58
2021/09/21 11:18:34;;;;;;;5.00;3.10;;;18.90;99.90;;;;;;5052618;28;20568;-63
2021/09/21 11:21:03;;;;;;;12.98;3.53;;;18.30;99.90;;;;;;5059209;28;20034;-61
2021/09/21 11:23:32;;;;;;;2.65;2.35;;;18.20;99.90;;;;;;5053311;28;20025;-61
2021/09/21 11:26:00;;;;;;;6.75;2.67;;;18.50;99.90;;;;;;5054145;28;20109;-63
2021/09/21 11:28:30;;;;;;;8.75;3.45;;;18.70;99.90;;;;;;5064236;28;20086;-62
2021/09/21 11:30:56;;;;;;;4.20;2.50;;;18.50;99.90;;;;;;5040293;28;20028;-63
2021/09/21 11:33:28;;;;;;;4.05;2.78;;;18.60;99.90;;;;;;5059776;28;20030;-63
2021/09/21 11:35:56;;;;;;;6.32;2.63;;;18.50;99.90;;;;;;5058752;28;20024;-63
2021/09/21 11:38:24;;;;;;;5.50;2.80;;;18.60;99.90;;;;;;5066087;28;20013;-61
2021/09/21 11:40:51;;;;;;;5.20;2.97;;;18.70;99.90;;;;;;5077210;28;20125;-61
2021/09/21 11:43:17;;;;;;;5.18;2.45;;;19.10;99.90;;;;;;5063994;28;20028;-61
2021/09/21 11:45:46;;;;;;;4.68;2.67;;;19.20;99.90;;;;;;5047725;28;20027;-61
2021/09/21 11:48:14;;;;;;;5.47;2.97;;;19.40;99.90;;;;;;5065395;28;20020;-63
2021/09/21 11:50:41;;;;;;;6.03;2.80;;;19.40;99.90;;;;;;5064261;28;20112;-61
2021/09/21 11:53:09;;;;;;;3.70;2.75;;;19.50;99.90;;;;;;5062536;28;20028;-62
2021/09/21 11:55:38;;;;;;;4.95;2.53;;;19.70;99.90;;;;;;5058576;28;20032;-63
2021/09/21 11:58:06;;;;;;;5.55;2.88;;;19.80;99.90;;;;;;5051091;28;20013;-58
2021/09/21 12:00:35;;;;;;;5.13;2.45;;;20.30;99.90;;;;;;5064603;28;20114;-57
2021/09/21 12:03:09;;;;;;;5.43;3.30;;;20.40;99.90;;;;;;5056743;28;20128;-60
2021/09/21 12:05:36;;;;;;;;;;;20.00;99.90;;;;;;5056824;28;20033;-63
2021/09/21 12:08:05;;;;;;;5.55;2.50;;;20.40;99.90;;;;;;5052064;28;19920;-63
2021/09/21 12:10:31;;;;;;;5.28;2.38;;;20.30;99.90;;;;;;5050600;28;20432;-63
2021/09/21 12:13:06;;;;;;;6.57;3.05;;;19.90;99.90;;;;;;5052906;28;20035;-63
2021/09/21 12:15:32;;;;;;;4.78;2.13;;;19.90;99.90;;;;;;5049835;28;20070;-62
2021/09/21 12:18:00;;;;;;;3.38;2.45;;;19.90;99.90;;;;;;5054010;28;20036;-63
2021/09/21 12:20:28;;;;;;;8.65;3.08;;;19.80;99.90;;;;;;5049679;28;20469;-65
2021/09/21 12:22:55;;;;;;;5.82;2.75;;;19.60;99.90;;;;;;5048239;28;20575;-61
2021/09/21 12:25:23;;;;;;;6.80;2.80;;;19.30;99.90;;;;;;5047114;28;20492;-61
2021/09/21 12:27:55;;;;;;;5.63;2.90;;;19.20;99.90;;;;;;5047948;28;20036;-59
2021/09/21 12:30:25;;;;;;;7.25;3.30;;;19.30;99.90;;;;;;5055933;28;20033;-61
2021/09/21 12:33:12;;;;;;;2.97;2.38;;;19.40;99.90;;;;;;5054610;28;20025;-60
2021/09/21 12:35:51;;;;;;;3.38;2.40;;;19.30;99.90;;;;;;5066090;28;20123;-61
2021/09/21 12:38:19;;;;;;;5.38;2.70;;;19.30;99.90;;;;;;5048682;28;20037;-63
2021/09/21 12:40:52;;;;;;;6.75;3.13;;;19.00;99.90;;;;;;5057075;28;20036;-62
2021/09/21 12:43:41;;;;;;;6.95;2.78;;;19.00;99.90;;;;;;5058206;28;20017;-63
2021/09/21 12:46:09;;;;;;;5.72;2.67;;;18.90;99.90;;;;;;5058995;28;20752;-63
2021/09/21 12:48:40;;;;;;;10.00;3.55;;;18.90;99.90;;;;;;5050640;28;20434;-59
2021/09/21 12:51:09;;;;;;;5.35;2.80;;;18.90;99.90;;;;;;5051725;28;20864;-61
2021/09/21 12:53:34;;;;;;;4.78;2.63;;;19.10;99.90;;;;;;5059128;28;20107;-62
2021/09/21 12:56:04;;;;;;;3.75;2.83;;;19.20;99.90;;;;;;5062846;28;20802;-62